Terminal Aerodrome Forecast
Issued by NWS

Home | Current Version | Previous Version | Text Only | Print | Product List | Glossary On
Versions: 1 2 3 4 5 6 7 8 9 10 11 12 13 14
119
FTUS46 KMTR 110526
TAFSNS
TAF
KSNS 110526Z 1106/1206 11006KT P6SM FEW200
     FM112000 27008KT P6SM SCT200
     FM120500 11005KT P6SM SCT250=

USA.gov is the U.S. government's official web portal to all federal, state and local government web resources and services.